PNCDV weather

Public forecast

Using degrees Celsius for public forecast. Weather courtesy of forecast.io.

Closest aviation weather report (METAR) to Campo di Volo Cordovado

Report is more than 6 hours old.

Closest report is Rivolto Air Base, 10.8 nm (19.9 km) NE. Retrieved 2020/08/14 09:55 UTC (1 day ago):

LIPI 140955Z 01004KT 9999 FEW025 SCT090 28/20 Q1012 RMK SCT VIS MIN 9999 WIND THR06 02005KT WIND THR24 01004KT BLU

Closest aviation forecast (TAF) to Campo di Volo Cordovado

Forecast is more than 12 hours old.

Closest forecast is Rivolto Air Base, 10.8 nm (19.9 km) NE. Retrieved 2020/01/23 12:24 UTC (7 months ago):

TAF TAF LIPI 231100Z 2312/2324 06010KT CAVOK